sensor_id;sensor_type;location;lat;lon;timestamp;P1;durP1;ratioP1;P2;durP2;ratioP2
20928;SDS011;21895;47.072;15.132;2023-04-03T00:01:02;1.63;;;1.20;;
20928;SDS011;21895;47.072;15.132;2023-04-03T00:03:30;1.87;;;1.30;;
20928;SDS011;21895;47.072;15.132;2023-04-03T00:05:56;2.27;;;1.30;;
20928;SDS011;21895;47.072;15.132;2023-04-03T00:08:23;2.13;;;1.30;;
20928;SDS011;21895;47.072;15.132;2023-04-03T00:10:50;1.97;;;1.17;;
20928;SDS011;21895;47.072;15.132;2023-04-03T00:13:16;3.17;;;1.37;;
20928;SDS011;21895;47.072;15.132;2023-04-03T00:15:43;2.90;;;1.20;;
20928;SDS011;21895;47.072;15.132;2023-04-03T00:18:10;2.00;;;1.20;;
20928;SDS011;21895;47.072;15.132;2023-04-03T00:20:37;1.53;;;1.10;;
20928;SDS011;21895;47.072;15.132;2023-04-03T00:23:04;1.77;;;1.20;;
20928;SDS011;21895;47.072;15.132;2023-04-03T00:25:30;1.70;;;1.20;;
20928;SDS011;21895;47.072;15.132;2023-04-03T00:27:57;2.90;;;1.30;;
20928;SDS011;21895;47.072;15.132;2023-04-03T00:30:24;5.27;;;1.30;;
20928;SDS011;21895;47.072;15.132;2023-04-03T00:32:51;1.90;;;1.30;;
20928;SDS011;21895;47.072;15.132;2023-04-03T00:35:19;2.77;;;1.27;;
20928;SDS011;21895;47.072;15.132;2023-04-03T00:37:47;3.63;;;1.30;;
20928;SDS011;21895;47.072;15.132;2023-04-03T00:40:14;1.67;;;1.20;;
20928;SDS011;21895;47.072;15.132;2023-04-03T00:42:42;1.60;;;1.20;;
20928;SDS011;21895;47.072;15.132;2023-04-03T00:51:27;2.00;;;1.20;;
20928;SDS011;21895;47.072;15.132;2023-04-03T00:53:55;2.47;;;1.53;;
20928;SDS011;21895;47.072;15.132;2023-04-03T00:56:27;2.47;;;1.60;;
20928;SDS011;21895;47.072;15.132;2023-04-03T00:59:04;2.17;;;1.40;;
20928;SDS011;21895;47.072;15.132;2023-04-03T01:01:47;2.13;;;1.30;;
20928;SDS011;21895;47.072;15.132;2023-04-03T01:07:09;1.33;;;1.20;;
20928;SDS011;21895;47.072;15.132;2023-04-03T01:09:42;2.30;;;1.50;;
20928;SDS011;21895;47.072;15.132;2023-04-03T01:12:15;1.50;;;1.23;;
20928;SDS011;21895;47.072;15.132;2023-04-03T01:14:47;3.63;;;1.33;;
20928;SDS011;21895;47.072;15.132;2023-04-03T01:22:19;2.80;;;1.40;;
20928;SDS011;21895;47.072;15.132;2023-04-03T01:25:01;2.17;;;1.17;;
20928;SDS011;21895;47.072;15.132;2023-04-03T01:27:28;2.47;;;1.30;;
20928;SDS011;21895;47.072;15.132;2023-04-03T01:29:54;1.77;;;1.20;;
20928;SDS011;21895;47.072;15.132;2023-04-03T01:32:21;2.17;;;1.37;;
20928;SDS011;21895;47.072;15.132;2023-04-03T01:34:47;3.03;;;1.40;;
20928;SDS011;21895;47.072;15.132;2023-04-03T01:37:14;2.37;;;1.50;;
20928;SDS011;21895;47.072;15.132;2023-04-03T01:39:40;1.77;;;1.07;;
20928;SDS011;21895;47.072;15.132;2023-04-03T01:42:07;1.87;;;1.40;;
20928;SDS011;21895;47.072;15.132;2023-04-03T01:44:34;1.87;;;1.43;;
20928;SDS011;21895;47.072;15.132;2023-04-03T01:47:01;2.00;;;1.17;;
20928;SDS011;21895;47.072;15.132;2023-04-03T01:49:27;2.63;;;1.53;;
20928;SDS011;21895;47.072;15.132;2023-04-03T01:51:54;2.23;;;1.57;;
20928;SDS011;21895;47.072;15.132;2023-04-03T01:54:20;2.50;;;1.20;;
20928;SDS011;21895;47.072;15.132;2023-04-03T01:56:47;1.60;;;1.30;;
20928;SDS011;21895;47.072;15.132;2023-04-03T01:59:13;2.73;;;1.47;;
20928;SDS011;21895;47.072;15.132;2023-04-03T02:01:42;2.43;;;1.40;;
20928;SDS011;21895;47.072;15.132;2023-04-03T02:04:11;2.90;;;1.57;;
20928;SDS011;21895;47.072;15.132;2023-04-03T02:06:38;3.43;;;1.70;;
20928;SDS011;21895;47.072;15.132;2023-04-03T02:09:04;3.00;;;1.70;;
20928;SDS011;21895;47.072;15.132;2023-04-03T02:11:31;3.80;;;1.60;;
20928;SDS011;21895;47.072;15.132;2023-04-03T02:13:57;1.63;;;1.43;;
20928;SDS011;21895;47.072;15.132;2023-04-03T02:16:24;2.57;;;1.30;;
20928;SDS011;21895;47.072;15.132;2023-04-03T02:18:50;2.77;;;1.60;;
20928;SDS011;21895;47.072;15.132;2023-04-03T02:21:17;1.97;;;1.50;;
20928;SDS011;21895;47.072;15.132;2023-04-03T02:23:43;4.20;;;1.80;;
20928;SDS011;21895;47.072;15.132;2023-04-03T02:26:10;2.73;;;1.80;;
20928;SDS011;21895;47.072;15.132;2023-04-03T02:28:40;2.93;;;1.70;;
20928;SDS011;21895;47.072;15.132;2023-04-03T02:31:07;2.90;;;1.53;;
20928;SDS011;21895;47.072;15.132;2023-04-03T02:33:35;2.43;;;1.73;;
20928;SDS011;21895;47.072;15.132;2023-04-03T02:36:03;1.87;;;1.30;;
20928;SDS011;21895;47.072;15.132;2023-04-03T02:38:31;3.27;;;1.40;;
20928;SDS011;21895;47.072;15.132;2023-04-03T02:41:05;3.07;;;1.60;;
20928;SDS011;21895;47.072;15.132;2023-04-03T02:43:35;2.73;;;1.60;;
20928;SDS011;21895;47.072;15.132;2023-04-03T02:46:03;3.60;;;1.70;;
20928;SDS011;21895;47.072;15.132;2023-04-03T02:48:31;3.17;;;1.50;;
20928;SDS011;21895;47.072;15.132;2023-04-03T02:50:58;2.90;;;1.60;;
20928;SDS011;21895;47.072;15.132;2023-04-03T02:53:24;2.80;;;1.67;;
20928;SDS011;21895;47.072;15.132;2023-04-03T02:55:50;1.43;;;1.27;;
20928;SDS011;21895;47.072;15.132;2023-04-03T02:58:17;5.90;;;1.57;;
20928;SDS011;21895;47.072;15.132;2023-04-03T03:00:44;3.23;;;1.70;;
20928;SDS011;21895;47.072;15.132;2023-04-03T03:03:10;2.67;;;1.80;;
20928;SDS011;21895;47.072;15.132;2023-04-03T03:05:38;3.57;;;1.53;;
20928;SDS011;21895;47.072;15.132;2023-04-03T03:08:05;2.63;;;1.47;;
20928;SDS011;21895;47.072;15.132;2023-04-03T03:10:31;4.70;;;1.40;;
20928;SDS011;21895;47.072;15.132;2023-04-03T03:12:58;2.77;;;1.60;;
20928;SDS011;21895;47.072;15.132;2023-04-03T03:15:24;3.20;;;1.63;;
20928;SDS011;21895;47.072;15.132;2023-04-03T03:17:51;3.50;;;1.63;;
20928;SDS011;21895;47.072;15.132;2023-04-03T03:20:17;1.77;;;1.47;;
20928;SDS011;21895;47.072;15.132;2023-04-03T03:22:44;2.10;;;1.40;;
20928;SDS011;21895;47.072;15.132;2023-04-03T03:25:10;3.77;;;1.70;;
20928;SDS011;21895;47.072;15.132;2023-04-03T03:27:37;2.03;;;1.20;;
20928;SDS011;21895;47.072;15.132;2023-04-03T03:30:04;2.93;;;1.87;;
20928;SDS011;21895;47.072;15.132;2023-04-03T03:32:32;3.23;;;1.70;;
20928;SDS011;21895;47.072;15.132;2023-04-03T03:34:58;3.63;;;1.73;;
20928;SDS011;21895;47.072;15.132;2023-04-03T03:37:25;3.57;;;1.70;;
20928;SDS011;21895;47.072;15.132;2023-04-03T03:39:52;2.73;;;1.70;;
20928;SDS011;21895;47.072;15.132;2023-04-03T03:42:18;3.53;;;1.83;;
20928;SDS011;21895;47.072;15.132;2023-04-03T03:44:45;2.77;;;1.73;;
20928;SDS011;21895;47.072;15.132;2023-04-03T03:47:11;2.50;;;1.63;;
20928;SDS011;21895;47.072;15.132;2023-04-03T03:49:38;2.97;;;1.70;;
20928;SDS011;21895;47.072;15.132;2023-04-03T03:52:04;2.00;;;1.53;;
20928;SDS011;21895;47.072;15.132;2023-04-03T03:54:31;4.40;;;1.63;;
20928;SDS011;21895;47.072;15.132;2023-04-03T03:56:57;2.30;;;1.33;;
20928;SDS011;21895;47.072;15.132;2023-04-03T03:59:24;4.03;;;1.90;;
20928;SDS011;21895;47.072;15.132;2023-04-03T04:01:50;2.73;;;1.60;;
20928;SDS011;21895;47.072;15.132;2023-04-03T04:04:17;3.70;;;2.20;;
20928;SDS011;21895;47.072;15.132;2023-04-03T04:06:43;3.47;;;2.07;;
20928;SDS011;21895;47.072;15.132;2023-04-03T04:09:10;3.37;;;2.10;;
20928;SDS011;21895;47.072;15.132;2023-04-03T04:11:37;4.47;;;2.10;;
20928;SDS011;21895;47.072;15.132;2023-04-03T04:14:05;3.40;;;2.10;;
20928;SDS011;21895;47.072;15.132;2023-04-03T04:16:32;2.77;;;1.90;;
20928;SDS011;21895;47.072;15.132;2023-04-03T04:18:59;2.90;;;1.90;;
20928;SDS011;21895;47.072;15.132;2023-04-03T04:21:25;5.70;;;1.90;;
20928;SDS011;21895;47.072;15.132;2023-04-03T04:23:52;3.00;;;1.97;;
20928;SDS011;21895;47.072;15.132;2023-04-03T04:26:18;3.60;;;1.80;;
20928;SDS011;21895;47.072;15.132;2023-04-03T04:28:46;5.17;;;1.70;;
20928;SDS011;21895;47.072;15.132;2023-04-03T04:31:13;2.90;;;1.80;;
20928;SDS011;21895;47.072;15.132;2023-04-03T04:33:39;2.93;;;2.00;;
20928;SDS011;21895;47.072;15.132;2023-04-03T04:36:06;3.37;;;1.57;;
20928;SDS011;21895;47.072;15.132;2023-04-03T04:38:33;2.50;;;1.67;;
20928;SDS011;21895;47.072;15.132;2023-04-03T04:40:59;2.27;;;1.60;;
20928;SDS011;21895;47.072;15.132;2023-04-03T04:43:26;4.57;;;2.10;;
20928;SDS011;21895;47.072;15.132;2023-04-03T04:46:05;2.30;;;1.70;;
20928;SDS011;21895;47.072;15.132;2023-04-03T04:48:35;6.33;;;1.83;;
20928;SDS011;21895;47.072;15.132;2023-04-03T04:51:02;5.30;;;1.77;;
20928;SDS011;21895;47.072;15.132;2023-04-03T04:53:29;3.83;;;1.97;;
20928;SDS011;21895;47.072;15.132;2023-04-03T04:55:55;3.93;;;2.10;;
20928;SDS011;21895;47.072;15.132;2023-04-03T04:58:22;2.70;;;1.63;;
20928;SDS011;21895;47.072;15.132;2023-04-03T05:00:49;5.23;;;2.20;;
20928;SDS011;21895;47.072;15.132;2023-04-03T05:03:15;4.10;;;1.90;;
20928;SDS011;21895;47.072;15.132;2023-04-03T05:05:42;2.37;;;1.80;;
20928;SDS011;21895;47.072;15.132;2023-04-03T05:08:08;2.77;;;1.80;;
20928;SDS011;21895;47.072;15.132;2023-04-03T05:10:35;4.23;;;1.90;;
20928;SDS011;21895;47.072;15.132;2023-04-03T05:13:01;2.73;;;1.60;;
20928;SDS011;21895;47.072;15.132;2023-04-03T05:15:28;14.07;;;1.90;;
20928;SDS011;21895;47.072;15.132;2023-04-03T05:17:54;7.40;;;1.90;;
20928;SDS011;21895;47.072;15.132;2023-04-03T05:20:21;5.43;;;2.00;;
20928;SDS011;21895;47.072;15.132;2023-04-03T05:22:47;4.37;;;2.07;;
20928;SDS011;21895;47.072;15.132;2023-04-03T05:25:14;3.30;;;1.90;;
20928;SDS011;21895;47.072;15.132;2023-04-03T05:27:40;8.30;;;2.40;;
20928;SDS011;21895;47.072;15.132;2023-04-03T05:30:07;4.27;;;2.20;;
20928;SDS011;21895;47.072;15.132;2023-04-03T05:32:34;6.07;;;3.10;;
20928;SDS011;21895;47.072;15.132;2023-04-03T05:35:01;17.97;;;5.00;;
20928;SDS011;21895;47.072;15.132;2023-04-03T05:37:28;15.70;;;5.13;;
20928;SDS011;21895;47.072;15.132;2023-04-03T05:39:55;17.40;;;2.90;;
20928;SDS011;21895;47.072;15.132;2023-04-03T05:42:21;8.30;;;2.20;;
20928;SDS011;21895;47.072;15.132;2023-04-03T05:44:48;3.60;;;2.20;;
20928;SDS011;21895;47.072;15.132;2023-04-03T05:47:15;7.47;;;3.13;;
20928;SDS011;21895;47.072;15.132;2023-04-03T05:49:43;7.03;;;3.00;;
20928;SDS011;21895;47.072;15.132;2023-04-03T05:52:18;3.87;;;2.20;;
20928;SDS011;21895;47.072;15.132;2023-04-03T05:54:57;3.27;;;2.20;;
20928;SDS011;21895;47.072;15.132;2023-04-03T05:57:24;4.53;;;1.97;;
20928;SDS011;21895;47.072;15.132;2023-04-03T05:59:50;2.33;;;1.80;;
20928;SDS011;21895;47.072;15.132;2023-04-03T06:02:18;4.37;;;2.43;;
20928;SDS011;21895;47.072;15.132;2023-04-03T06:04:47;3.03;;;1.87;;
20928;SDS011;21895;47.072;15.132;2023-04-03T06:07:18;3.43;;;2.27;;
20928;SDS011;21895;47.072;15.132;2023-04-03T06:09:48;4.73;;;2.80;;
20928;SDS011;21895;47.072;15.132;2023-04-03T06:12:16;5.13;;;2.53;;
20928;SDS011;21895;47.072;15.132;2023-04-03T06:14:44;5.00;;;3.20;;
20928;SDS011;21895;47.072;15.132;2023-04-03T06:17:11;6.17;;;2.90;;
20928;SDS011;21895;47.072;15.132;2023-04-03T06:19:37;3.73;;;2.53;;
20928;SDS011;21895;47.072;15.132;2023-04-03T06:22:04;6.87;;;2.70;;
20928;SDS011;21895;47.072;15.132;2023-04-03T06:24:31;8.37;;;2.43;;
20928;SDS011;21895;47.072;15.132;2023-04-03T06:26:58;6.37;;;2.27;;
20928;SDS011;21895;47.072;15.132;2023-04-03T06:29:25;5.30;;;2.77;;
20928;SDS011;21895;47.072;15.132;2023-04-03T06:31:51;10.27;;;2.40;;
20928;SDS011;21895;47.072;15.132;2023-04-03T06:34:18;8.47;;;2.30;;
20928;SDS011;21895;47.072;15.132;2023-04-03T06:36:45;4.13;;;2.13;;
20928;SDS011;21895;47.072;15.132;2023-04-03T06:39:16;5.87;;;2.50;;
20928;SDS011;21895;47.072;15.132;2023-04-03T06:41:48;2.77;;;1.90;;
20928;SDS011;21895;47.072;15.132;2023-04-03T06:44:16;5.37;;;1.80;;
20928;SDS011;21895;47.072;15.132;2023-04-03T06:46:43;3.20;;;2.03;;
20928;SDS011;21895;47.072;15.132;2023-04-03T06:49:12;6.03;;;2.47;;
20928;SDS011;21895;47.072;15.132;2023-04-03T06:51:38;3.10;;;2.17;;
20928;SDS011;21895;47.072;15.132;2023-04-03T06:54:05;8.43;;;2.00;;
20928;SDS011;21895;47.072;15.132;2023-04-03T06:56:33;2.30;;;1.60;;
20928;SDS011;21895;47.072;15.132;2023-04-03T06:59:00;1.37;;;1.20;;
20928;SDS011;21895;47.072;15.132;2023-04-03T07:01:28;1.83;;;1.33;;
20928;SDS011;21895;47.072;15.132;2023-04-03T07:03:56;2.27;;;1.10;;
20928;SDS011;21895;47.072;15.132;2023-04-03T07:06:23;2.90;;;1.10;;
20928;SDS011;21895;47.072;15.132;2023-04-03T07:08:53;2.60;;;1.53;;
20928;SDS011;21895;47.072;15.132;2023-04-03T07:11:21;2.33;;;1.30;;
20928;SDS011;21895;47.072;15.132;2023-04-03T07:13:48;3.50;;;1.10;;
20928;SDS011;21895;47.072;15.132;2023-04-03T07:16:15;1.40;;;1.23;;
20928;SDS011;21895;47.072;15.132;2023-04-03T07:18:42;1.80;;;1.30;;
20928;SDS011;21895;47.072;15.132;2023-04-03T07:21:09;3.10;;;1.10;;
20928;SDS011;21895;47.072;15.132;2023-04-03T07:23:35;1.93;;;1.40;;
20928;SDS011;21895;47.072;15.132;2023-04-03T07:26:02;1.83;;;1.30;;
20928;SDS011;21895;47.072;15.132;2023-04-03T07:28:29;1.03;;;0.87;;
20928;SDS011;21895;47.072;15.132;2023-04-03T07:31:00;2.20;;;1.00;;
20928;SDS011;21895;47.072;15.132;2023-04-03T07:33:32;2.17;;;1.30;;
20928;SDS011;21895;47.072;15.132;2023-04-03T07:35:58;1.73;;;1.10;;
20928;SDS011;21895;47.072;15.132;2023-04-03T07:38:25;1.73;;;0.90;;
20928;SDS011;21895;47.072;15.132;2023-04-03T07:40:52;1.63;;;1.10;;
20928;SDS011;21895;47.072;15.132;2023-04-03T07:43:19;2.40;;;1.40;;
20928;SDS011;21895;47.072;15.132;2023-04-03T07:45:48;1.43;;;1.00;;
20928;SDS011;21895;47.072;15.132;2023-04-03T07:48:23;1.33;;;1.10;;
20928;SDS011;21895;47.072;15.132;2023-04-03T07:50:51;1.47;;;1.10;;
20928;SDS011;21895;47.072;15.132;2023-04-03T07:53:18;1.33;;;1.00;;
20928;SDS011;21895;47.072;15.132;2023-04-03T07:55:47;2.13;;;1.07;;
20928;SDS011;21895;47.072;15.132;2023-04-03T07:58:17;1.23;;;0.87;;
20928;SDS011;21895;47.072;15.132;2023-04-03T08:00:44;1.43;;;1.03;;
20928;SDS011;21895;47.072;15.132;2023-04-03T08:03:11;1.50;;;1.10;;
20928;SDS011;21895;47.072;15.132;2023-04-03T08:05:40;3.20;;;1.07;;
20928;SDS011;21895;47.072;15.132;2023-04-03T08:08:09;1.23;;;0.83;;
20928;SDS011;21895;47.072;15.132;2023-04-03T08:10:37;1.27;;;0.97;;
20928;SDS011;21895;47.072;15.132;2023-04-03T08:13:06;1.30;;;1.07;;
20928;SDS011;21895;47.072;15.132;2023-04-03T08:15:35;1.10;;;1.00;;
20928;SDS011;21895;47.072;15.132;2023-04-03T08:18:02;4.67;;;1.20;;
20928;SDS011;21895;47.072;15.132;2023-04-03T08:20:29;1.50;;;1.00;;
20928;SDS011;21895;47.072;15.132;2023-04-03T08:22:56;2.57;;;0.93;;
20928;SDS011;21895;47.072;15.132;2023-04-03T08:25:23;3.63;;;1.20;;
20928;SDS011;21895;47.072;15.132;2023-04-03T08:27:49;1.80;;;1.23;;
20928;SDS011;21895;47.072;15.132;2023-04-03T08:30:16;1.50;;;1.20;;
20928;SDS011;21895;47.072;15.132;2023-04-03T08:32:43;1.33;;;1.00;;
20928;SDS011;21895;47.072;15.132;2023-04-03T08:35:09;2.00;;;1.20;;
20928;SDS011;21895;47.072;15.132;2023-04-03T08:37:37;2.23;;;1.10;;
20928;SDS011;21895;47.072;15.132;2023-04-03T08:40:05;1.93;;;1.33;;
20928;SDS011;21895;47.072;15.132;2023-04-03T08:43:03;3.90;;;1.20;;
20928;SDS011;21895;47.072;15.132;2023-04-03T08:46:03;1.40;;;1.07;;
20928;SDS011;21895;47.072;15.132;2023-04-03T08:48:38;1.10;;;0.97;;
20928;SDS011;21895;47.072;15.132;2023-04-03T08:51:15;1.70;;;1.13;;
20928;SDS011;21895;47.072;15.132;2023-04-03T08:53:56;2.60;;;1.43;;
20928;SDS011;21895;47.072;15.132;2023-04-03T08:56:30;1.53;;;1.07;;
20928;SDS011;21895;47.072;15.132;2023-04-03T08:59:00;2.03;;;1.83;;
20928;SDS011;21895;47.072;15.132;2023-04-03T09:01:39;1.30;;;1.00;;
20928;SDS011;21895;47.072;15.132;2023-04-03T09:04:11;2.83;;;1.10;;
20928;SDS011;21895;47.072;15.132;2023-04-03T09:06:42;1.83;;;1.30;;
20928;SDS011;21895;47.072;15.132;2023-04-03T09:09:27;1.43;;;1.17;;
20928;SDS011;21895;47.072;15.132;2023-04-03T09:12:41;1.57;;;1.10;;
20928;SDS011;21895;47.072;15.132;2023-04-03T09:18:18;1.20;;;0.80;;
20928;SDS011;21895;47.072;15.132;2023-04-03T09:21:02;0.80;;;0.80;;
20928;SDS011;21895;47.072;15.132;2023-04-03T09:24:13;1.70;;;1.00;;
20928;SDS011;21895;47.072;15.132;2023-04-03T09:26:51;1.60;;;1.10;;
20928;SDS011;21895;47.072;15.132;2023-04-03T09:29:27;1.20;;;0.90;;
20928;SDS011;21895;47.072;15.132;2023-04-03T09:32:01;2.20;;;1.03;;
20928;SDS011;21895;47.072;15.132;2023-04-03T09:34:51;1.23;;;1.00;;
20928;SDS011;21895;47.072;15.132;2023-04-03T09:37:34;1.87;;;1.30;;
20928;SDS011;21895;47.072;15.132;2023-04-03T09:40:30;1.80;;;1.13;;
20928;SDS011;21895;47.072;15.132;2023-04-03T09:44:58;1.60;;;0.87;;
20928;SDS011;21895;47.072;15.132;2023-04-03T09:47:34;2.73;;;1.00;;
20928;SDS011;21895;47.072;15.132;2023-04-03T09:50:19;1.50;;;1.10;;
20928;SDS011;21895;47.072;15.132;2023-04-03T09:52:49;1.87;;;0.90;;
20928;SDS011;21895;47.072;15.132;2023-04-03T09:55:21;1.87;;;1.03;;
20928;SDS011;21895;47.072;15.132;2023-04-03T09:57:58;1.80;;;1.00;;
20928;SDS011;21895;47.072;15.132;2023-04-03T10:00:37;1.50;;;0.90;;
20928;SDS011;21895;47.072;15.132;2023-04-03T10:03:20;2.03;;;1.03;;
20928;SDS011;21895;47.072;15.132;2023-04-03T10:06:00;4.73;;;0.80;;
20928;SDS011;21895;47.072;15.132;2023-04-03T10:08:29;1.43;;;0.90;;
20928;SDS011;21895;47.072;15.132;2023-04-03T10:11:06;3.43;;;1.10;;
20928;SDS011;21895;47.072;15.132;2023-04-03T10:18:23;1.53;;;0.87;;
20928;SDS011;21895;47.072;15.132;2023-04-03T10:21:51;1.67;;;0.97;;
20928;SDS011;21895;47.072;15.132;2023-04-03T10:26:29;1.50;;;1.00;;
20928;SDS011;21895;47.072;15.132;2023-04-03T10:32:40;1.47;;;1.23;;
20928;SDS011;21895;47.072;15.132;2023-04-03T10:35:39;1.47;;;1.00;;
20928;SDS011;21895;47.072;15.132;2023-04-03T10:38:18;2.80;;;1.03;;
20928;SDS011;21895;47.072;15.132;2023-04-03T10:41:23;1.23;;;1.10;;
20928;SDS011;21895;47.072;15.132;2023-04-03T10:51:42;1.23;;;1.13;;
20928;SDS011;21895;47.072;15.132;2023-04-03T10:55:15;1.97;;;1.23;;
20928;SDS011;21895;47.072;15.132;2023-04-03T10:58:08;5.90;;;1.50;;
20928;SDS011;21895;47.072;15.132;2023-04-03T11:00:54;4.13;;;1.20;;
20928;SDS011;21895;47.072;15.132;2023-04-03T11:03:34;1.20;;;1.10;;
20928;SDS011;21895;47.072;15.132;2023-04-03T11:06:08;1.40;;;1.03;;
20928;SDS011;21895;47.072;15.132;2023-04-03T11:08:57;1.50;;;1.17;;
20928;SDS011;21895;47.072;15.132;2023-04-03T11:11:34;4.37;;;1.10;;
20928;SDS011;21895;47.072;15.132;2023-04-03T11:14:09;2.17;;;1.37;;
20928;SDS011;21895;47.072;15.132;2023-04-03T11:24:25;2.03;;;1.30;;
20928;SDS011;21895;47.072;15.132;2023-04-03T11:26:56;4.77;;;1.63;;
20928;SDS011;21895;47.072;15.132;2023-04-03T11:29:31;1.37;;;1.20;;
20928;SDS011;21895;47.072;15.132;2023-04-03T11:37:31;3.13;;;1.63;;
20928;SDS011;21895;47.072;15.132;2023-04-03T11:40:04;2.73;;;1.70;;
20928;SDS011;21895;47.072;15.132;2023-04-03T11:42:54;3.13;;;1.70;;
20928;SDS011;21895;47.072;15.132;2023-04-03T11:45:33;2.50;;;1.23;;
20928;SDS011;21895;47.072;15.132;2023-04-03T11:48:41;2.03;;;1.33;;
20928;SDS011;21895;47.072;15.132;2023-04-03T12:00:53;4.73;;;1.40;;
20928;SDS011;21895;47.072;15.132;2023-04-03T12:03:35;2.87;;;1.27;;
20928;SDS011;21895;47.072;15.132;2023-04-03T12:06:43;2.23;;;1.30;;
20928;SDS011;21895;47.072;15.132;2023-04-03T12:09:28;2.07;;;1.50;;
20928;SDS011;21895;47.072;15.132;2023-04-03T12:12:28;2.47;;;1.20;;
20928;SDS011;21895;47.072;15.132;2023-04-03T12:15:22;3.67;;;1.63;;
20928;SDS011;21895;47.072;15.132;2023-04-03T12:22:05;2.73;;;1.43;;
20928;SDS011;21895;47.072;15.132;2023-04-03T12:24:37;2.27;;;1.20;;
20928;SDS011;21895;47.072;15.132;2023-04-03T12:31:47;3.00;;;0.90;;
20928;SDS011;21895;47.072;15.132;2023-04-03T12:41:36;1.43;;;1.10;;
20928;SDS011;21895;47.072;15.132;2023-04-03T12:44:37;2.60;;;0.90;;
20928;SDS011;21895;47.072;15.132;2023-04-03T12:47:45;0.97;;;0.90;;
20928;SDS011;21895;47.072;15.132;2023-04-03T12:50:19;1.93;;;1.20;;
20928;SDS011;21895;47.072;15.132;2023-04-03T12:52:59;4.27;;;0.60;;
20928;SDS011;21895;47.072;15.132;2023-04-03T12:55:37;1.93;;;1.10;;
20928;SDS011;21895;47.072;15.132;2023-04-03T12:58:19;2.27;;;1.07;;
20928;SDS011;21895;47.072;15.132;2023-04-03T13:01:02;0.90;;;0.90;;
20928;SDS011;21895;47.072;15.132;2023-04-03T13:03:40;3.40;;;1.33;;
20928;SDS011;21895;47.072;15.132;2023-04-03T13:06:14;1.03;;;0.80;;
20928;SDS011;21895;47.072;15.132;2023-04-03T13:08:59;1.47;;;1.10;;
20928;SDS011;21895;47.072;15.132;2023-04-03T13:11:29;0.90;;;0.80;;
20928;SDS011;21895;47.072;15.132;2023-04-03T13:14:03;1.10;;;1.00;;
20928;SDS011;21895;47.072;15.132;2023-04-03T13:16:41;4.77;;;1.53;;
20928;SDS011;21895;47.072;15.132;2023-04-03T13:19:40;4.17;;;1.67;;
20928;SDS011;21895;47.072;15.132;2023-04-03T13:22:23;16.60;;;1.20;;
20928;SDS011;21895;47.072;15.132;2023-04-03T13:25:09;1.57;;;1.20;;
20928;SDS011;21895;47.072;15.132;2023-04-03T13:27:40;1.97;;;1.23;;
20928;SDS011;21895;47.072;15.132;2023-04-03T13:30:23;1.10;;;1.00;;
20928;SDS011;21895;47.072;15.132;2023-04-03T13:33:04;2.37;;;0.77;;
20928;SDS011;21895;47.072;15.132;2023-04-03T13:35:47;2.17;;;1.30;;
20928;SDS011;21895;47.072;15.132;2023-04-03T13:38:33;1.10;;;1.00;;
20928;SDS011;21895;47.072;15.132;2023-04-03T13:41:20;2.63;;;1.23;;
20928;SDS011;21895;47.072;15.132;2023-04-03T13:44:42;1.30;;;1.00;;
20928;SDS011;21895;47.072;15.132;2023-04-03T13:47:22;1.43;;;0.90;;
20928;SDS011;21895;47.072;15.132;2023-04-03T13:50:02;2.67;;;1.10;;
20928;SDS011;21895;47.072;15.132;2023-04-03T13:58:52;2.10;;;1.13;;
20928;SDS011;21895;47.072;15.132;2023-04-03T14:02:22;1.30;;;0.93;;
20928;SDS011;21895;47.072;15.132;2023-04-03T14:05:00;1.87;;;1.27;;
20928;SDS011;21895;47.072;15.132;2023-04-03T14:07:33;1.63;;;1.03;;
20928;SDS011;21895;47.072;15.132;2023-04-03T14:10:00;0.77;;;0.77;;
20928;SDS011;21895;47.072;15.132;2023-04-03T14:12:28;1.27;;;1.10;;
20928;SDS011;21895;47.072;15.132;2023-04-03T14:15:00;2.27;;;1.17;;
20928;SDS011;21895;47.072;15.132;2023-04-03T14:17:30;3.67;;;1.40;;
20928;SDS011;21895;47.072;15.132;2023-04-03T14:19:57;2.77;;;1.17;;
20928;SDS011;21895;47.072;15.132;2023-04-03T14:22:27;1.00;;;1.00;;
20928;SDS011;21895;47.072;15.132;2023-04-03T14:24:58;2.40;;;1.10;;
20928;SDS011;21895;47.072;15.132;2023-04-03T14:27:28;0.83;;;0.80;;
20928;SDS011;21895;47.072;15.132;2023-04-03T14:30:09;1.80;;;1.30;;
20928;SDS011;21895;47.072;15.132;2023-04-03T14:32:46;2.07;;;1.10;;
20928;SDS011;21895;47.072;15.132;2023-04-03T14:35:13;2.73;;;1.30;;
20928;SDS011;21895;47.072;15.132;2023-04-03T14:37:41;1.30;;;1.20;;
20928;SDS011;21895;47.072;15.132;2023-04-03T14:40:11;2.90;;;1.40;;
20928;SDS011;21895;47.072;15.132;2023-04-03T14:42:42;2.00;;;1.27;;
20928;SDS011;21895;47.072;15.132;2023-04-03T14:45:10;2.53;;;1.40;;
20928;SDS011;21895;47.072;15.132;2023-04-03T14:47:48;2.10;;;1.20;;
20928;SDS011;21895;47.072;15.132;2023-04-03T14:50:22;3.40;;;1.43;;
20928;SDS011;21895;47.072;15.132;2023-04-03T14:52:53;2.90;;;1.03;;
20928;SDS011;21895;47.072;15.132;2023-04-03T14:55:25;1.33;;;1.13;;
20928;SDS011;21895;47.072;15.132;2023-04-03T14:57:53;2.10;;;1.40;;
20928;SDS011;21895;47.072;15.132;2023-04-03T15:00:21;4.97;;;1.30;;
20928;SDS011;21895;47.072;15.132;2023-04-03T15:02:48;1.40;;;1.13;;
20928;SDS011;21895;47.072;15.132;2023-04-03T15:05:15;3.53;;;1.50;;
20928;SDS011;21895;47.072;15.132;2023-04-03T15:07:43;2.23;;;1.20;;
20928;SDS011;21895;47.072;15.132;2023-04-03T15:10:29;2.20;;;1.50;;
20928;SDS011;21895;47.072;15.132;2023-04-03T15:12:56;1.87;;;1.40;;
20928;SDS011;21895;47.072;15.132;2023-04-03T15:15:23;2.47;;;1.20;;
20928;SDS011;21895;47.072;15.132;2023-04-03T15:17:54;2.93;;;1.73;;
20928;SDS011;21895;47.072;15.132;2023-04-03T15:20:25;3.43;;;1.30;;
20928;SDS011;21895;47.072;15.132;2023-04-03T15:22:56;2.03;;;1.63;;
20928;SDS011;21895;47.072;15.132;2023-04-03T15:25:23;2.63;;;1.47;;
20928;SDS011;21895;47.072;15.132;2023-04-03T15:27:50;1.40;;;1.10;;
20928;SDS011;21895;47.072;15.132;2023-04-03T15:30:18;1.60;;;1.27;;
20928;SDS011;21895;47.072;15.132;2023-04-03T15:32:45;1.90;;;1.07;;
20928;SDS011;21895;47.072;15.132;2023-04-03T15:35:12;5.30;;;1.30;;
20928;SDS011;21895;47.072;15.132;2023-04-03T15:37:39;1.60;;;1.03;;
20928;SDS011;21895;47.072;15.132;2023-04-03T15:40:05;1.70;;;1.30;;
20928;SDS011;21895;47.072;15.132;2023-04-03T15:42:33;1.83;;;1.10;;
20928;SDS011;21895;47.072;15.132;2023-04-03T15:45:00;1.10;;;1.00;;
20928;SDS011;21895;47.072;15.132;2023-04-03T15:47:26;3.23;;;1.77;;
20928;SDS011;21895;47.072;15.132;2023-04-03T15:49:53;2.73;;;1.20;;
20928;SDS011;21895;47.072;15.132;2023-04-03T15:52:21;1.80;;;1.13;;
20928;SDS011;21895;47.072;15.132;2023-04-03T15:54:48;1.30;;;1.03;;
20928;SDS011;21895;47.072;15.132;2023-04-03T15:57:14;2.77;;;1.30;;
20928;SDS011;21895;47.072;15.132;2023-04-03T15:59:41;2.27;;;1.40;;
20928;SDS011;21895;47.072;15.132;2023-04-03T16:02:08;4.37;;;1.30;;
20928;SDS011;21895;47.072;15.132;2023-04-03T16:04:38;2.00;;;1.47;;
20928;SDS011;21895;47.072;15.132;2023-04-03T16:07:04;1.70;;;1.30;;
20928;SDS011;21895;47.072;15.132;2023-04-03T16:09:31;1.60;;;1.17;;
20928;SDS011;21895;47.072;15.132;2023-04-03T16:12:01;2.10;;;1.30;;
20928;SDS011;21895;47.072;15.132;2023-04-03T16:14:28;2.73;;;1.60;;
20928;SDS011;21895;47.072;15.132;2023-04-03T16:16:56;1.60;;;1.20;;
20928;SDS011;21895;47.072;15.132;2023-04-03T16:19:25;1.67;;;1.50;;
20928;SDS011;21895;47.072;15.132;2023-04-03T16:21:52;2.37;;;1.30;;
20928;SDS011;21895;47.072;15.132;2023-04-03T16:24:20;1.40;;;1.17;;